sensor_id;sensor_type;location;lat;lon;timestamp;pressure;altitude;pressure_sealevel;temperature;humidity
8573;BME280;4324;42.012;24.872;2022-12-18T00:01:58;99544.63;;;10.54;100.00
8573;BME280;4324;42.012;24.872;2022-12-18T00:04:27;99565.97;;;10.52;100.00
8573;BME280;4324;42.012;24.872;2022-12-18T00:06:54;99545.47;;;10.36;100.00
8573;BME280;4324;42.012;24.872;2022-12-18T00:09:21;99563.84;;;10.38;100.00
8573;BME280;4324;42.012;24.872;2022-12-18T00:11:48;99571.03;;;10.28;100.00
8573;BME280;4324;42.012;24.872;2022-12-18T00:14:17;99583.13;;;10.30;100.00
8573;BME280;4324;42.012;24.872;2022-12-18T00:16:44;99580.63;;;10.29;100.00
8573;BME280;4324;42.012;24.872;2022-12-18T00:19:12;99571.69;;;10.30;100.00
8573;BME280;4324;42.012;24.872;2022-12-18T00:21:39;99569.50;;;10.25;100.00
8573;BME280;4324;42.012;24.872;2022-12-18T00:24:07;99570.03;;;10.29;100.00
8573;BME280;4324;42.012;24.872;2022-12-18T00:26:36;99581.63;;;10.28;100.00
8573;BME280;4324;42.012;24.872;2022-12-18T00:29:04;99599.53;;;10.34;100.00
8573;BME280;4324;42.012;24.872;2022-12-18T00:31:33;99582.19;;;10.22;100.00
8573;BME280;4324;42.012;24.872;2022-12-18T00:34:00;99593.72;;;10.30;100.00
8573;BME280;4324;42.012;24.872;2022-12-18T00:36:29;99566.88;;;10.15;100.00
8573;BME280;4324;42.012;24.872;2022-12-18T00:38:57;99601.88;;;10.37;100.00
8573;BME280;4324;42.012;24.872;2022-12-18T00:41:25;99607.59;;;10.42;100.00
8573;BME280;4324;42.012;24.872;2022-12-18T00:44:11;99605.22;;;10.39;100.00
8573;BME280;4324;42.012;24.872;2022-12-18T00:46:40;99612.03;;;10.41;100.00
8573;BME280;4324;42.012;24.872;2022-12-18T00:49:07;99628.31;;;10.47;100.00
8573;BME280;4324;42.012;24.872;2022-12-18T00:51:34;99628.69;;;10.52;100.00
8573;BME280;4324;42.012;24.872;2022-12-18T00:54:01;99619.97;;;10.59;100.00
8573;BME280;4324;42.012;24.872;2022-12-18T00:56:28;99605.97;;;10.67;100.00
8573;BME280;4324;42.012;24.872;2022-12-18T00:58:55;99604.84;;;10.70;100.00
8573;BME280;4324;42.012;24.872;2022-12-18T01:01:22;99604.31;;;10.66;100.00
8573;BME280;4324;42.012;24.872;2022-12-18T01:03:51;99596.00;;;10.61;100.00
8573;BME280;4324;42.012;24.872;2022-12-18T01:06:18;99597.44;;;10.55;100.00
8573;BME280;4324;42.012;24.872;2022-12-18T01:08:45;99603.03;;;10.52;100.00
8573;BME280;4324;42.012;24.872;2022-12-18T01:11:14;99601.31;;;10.43;100.00
8573;BME280;4324;42.012;24.872;2022-12-18T01:13:42;99609.25;;;10.43;100.00
8573;BME280;4324;42.012;24.872;2022-12-18T01:16:11;99598.19;;;10.30;100.00
8573;BME280;4324;42.012;24.872;2022-12-18T01:18:38;99579.47;;;10.13;100.00
8573;BME280;4324;42.012;24.872;2022-12-18T01:21:08;99617.84;;;10.27;100.00
8573;BME280;4324;42.012;24.872;2022-12-18T01:23:35;99617.56;;;10.21;100.00
8573;BME280;4324;42.012;24.872;2022-12-18T01:26:06;99613.44;;;10.08;100.00
8573;BME280;4324;42.012;24.872;2022-12-18T01:28:32;99614.16;;;10.10;100.00
8573;BME280;4324;42.012;24.872;2022-12-18T01:31:10;99609.41;;;10.14;100.00
8573;BME280;4324;42.012;24.872;2022-12-18T01:33:37;99567.75;;;9.88;100.00
8573;BME280;4324;42.012;24.872;2022-12-18T01:36:04;99620.81;;;10.14;100.00
8573;BME280;4324;42.012;24.872;2022-12-18T01:38:33;99600.75;;;9.94;100.00
8573;BME280;4324;42.012;24.872;2022-12-18T01:41:00;99607.41;;;9.98;100.00
8573;BME280;4324;42.012;24.872;2022-12-18T01:43:45;99618.38;;;10.03;100.00
8573;BME280;4324;42.012;24.872;2022-12-18T01:46:12;99572.88;;;9.72;100.00
8573;BME280;4324;42.012;24.872;2022-12-18T01:48:40;99607.28;;;9.90;100.00
8573;BME280;4324;42.012;24.872;2022-12-18T01:51:09;99613.97;;;9.94;100.00
8573;BME280;4324;42.012;24.872;2022-12-18T01:53:39;99616.63;;;9.94;100.00
8573;BME280;4324;42.012;24.872;2022-12-18T01:56:07;99637.16;;;10.00;100.00
8573;BME280;4324;42.012;24.872;2022-12-18T01:58:41;99615.63;;;9.95;100.00
8573;BME280;4324;42.012;24.872;2022-12-18T02:01:10;99622.38;;;10.07;100.00
8573;BME280;4324;42.012;24.872;2022-12-18T02:03:40;99618.38;;;10.03;100.00
8573;BME280;4324;42.012;24.872;2022-12-18T02:06:12;99630.31;;;10.07;100.00
8573;BME280;4324;42.012;24.872;2022-12-18T02:08:48;99597.31;;;9.84;100.00
8573;BME280;4324;42.012;24.872;2022-12-18T02:11:23;99637.88;;;10.02;100.00
8573;BME280;4324;42.012;24.872;2022-12-18T02:14:01;99645.41;;;9.97;100.00
8573;BME280;4324;42.012;24.872;2022-12-18T02:16:36;99626.13;;;9.87;100.00
8573;BME280;4324;42.012;24.872;2022-12-18T02:19:12;99621.56;;;9.79;100.00
8573;BME280;4324;42.012;24.872;2022-12-18T02:21:49;99629.31;;;9.81;100.00
8573;BME280;4324;42.012;24.872;2022-12-18T02:24:28;99634.91;;;9.78;100.00
8573;BME280;4324;42.012;24.872;2022-12-18T02:26:59;99645.47;;;9.87;100.00
8573;BME280;4324;42.012;24.872;2022-12-18T02:29:31;99641.66;;;9.90;100.00
8573;BME280;4324;42.012;24.872;2022-12-18T02:31:59;99652.66;;;9.95;100.00
8573;BME280;4324;42.012;24.872;2022-12-18T02:34:31;99649.72;;;9.98;100.00
8573;BME280;4324;42.012;24.872;2022-12-18T02:37:02;99643.75;;;9.96;100.00
8573;BME280;4324;42.012;24.872;2022-12-18T02:39:32;99633.03;;;9.98;100.00
8573;BME280;4324;42.012;24.872;2022-12-18T02:42:01;99633.16;;;9.96;100.00
8573;BME280;4324;42.012;24.872;2022-12-18T02:44:33;99630.41;;;9.88;100.00
8573;BME280;4324;42.012;24.872;2022-12-18T02:47:00;99644.81;;;10.03;100.00
8573;BME280;4324;42.012;24.872;2022-12-18T02:49:34;99635.41;;;9.91;100.00
8573;BME280;4324;42.012;24.872;2022-12-18T02:52:08;99645.41;;;9.97;100.00
8573;BME280;4324;42.012;24.872;2022-12-18T02:54:51;99633.50;;;9.83;100.00
8573;BME280;4324;42.012;24.872;2022-12-18T02:57:30;99616.28;;;9.69;100.00
8573;BME280;4324;42.012;24.872;2022-12-18T03:00:04;99634.63;;;9.81;100.00
8573;BME280;4324;42.012;24.872;2022-12-18T03:02:37;99646.03;;;9.81;100.00
8573;BME280;4324;42.012;24.872;2022-12-18T03:05:10;99631.88;;;9.73;100.00
8573;BME280;4324;42.012;24.872;2022-12-18T03:07:42;99574.25;;;9.39;100.00
8573;BME280;4324;42.012;24.872;2022-12-18T03:10:13;99632.84;;;9.72;100.00
8573;BME280;4324;42.012;24.872;2022-12-18T03:12:45;99643.53;;;9.80;100.00
8573;BME280;4324;42.012;24.872;2022-12-18T03:15:17;99648.84;;;9.80;100.00
8573;BME280;4324;42.012;24.872;2022-12-18T03:17:49;99632.31;;;9.68;100.00
8573;BME280;4324;42.012;24.872;2022-12-18T03:20:21;99650.09;;;9.76;100.00
8573;BME280;4324;42.012;24.872;2022-12-18T03:22:51;99647.31;;;9.67;100.00
8573;BME280;4324;42.012;24.872;2022-12-18T03:25:20;99601.63;;;9.38;100.00
8573;BME280;4324;42.012;24.872;2022-12-18T03:27:54;99643.31;;;9.63;100.00
8573;BME280;4324;42.012;24.872;2022-12-18T03:30:23;99661.78;;;9.73;100.00
8573;BME280;4324;42.012;24.872;2022-12-18T03:32:56;99651.94;;;9.65;100.00
8573;BME280;4324;42.012;24.872;2022-12-18T03:35:29;99671.53;;;9.73;100.00
8573;BME280;4324;42.012;24.872;2022-12-18T03:38:00;99641.38;;;9.56;100.00
8573;BME280;4324;42.012;24.872;2022-12-18T03:40:31;99672.22;;;9.75;100.00
8573;BME280;4324;42.012;24.872;2022-12-18T03:43:07;99672.09;;;9.76;100.00
8573;BME280;4324;42.012;24.872;2022-12-18T03:45:40;99681.53;;;9.79;100.00
8573;BME280;4324;42.012;24.872;2022-12-18T03:48:16;99677.66;;;9.73;100.00
8573;BME280;4324;42.012;24.872;2022-12-18T03:50:49;99707.84;;;9.80;100.00
8573;BME280;4324;42.012;24.872;2022-12-18T03:53:25;99698.38;;;9.78;100.00
8573;BME280;4324;42.012;24.872;2022-12-18T03:55:55;99607.09;;;9.27;100.00
8573;BME280;4324;42.012;24.872;2022-12-18T03:58:25;99698.66;;;9.75;100.00
8573;BME280;4324;42.012;24.872;2022-12-18T04:00:56;99716.19;;;9.85;100.00
8573;BME280;4324;42.012;24.872;2022-12-18T04:03:24;99717.00;;;9.86;100.00
8573;BME280;4324;42.012;24.872;2022-12-18T04:05:54;99708.69;;;9.81;100.00
8573;BME280;4324;42.012;24.872;2022-12-18T04:08:23;99721.47;;;9.85;100.00
8573;BME280;4324;42.012;24.872;2022-12-18T04:10:51;99713.41;;;9.87;100.00
8573;BME280;4324;42.012;24.872;2022-12-18T04:13:22;99724.53;;;9.90;100.00
8573;BME280;4324;42.012;24.872;2022-12-18T04:15:50;99709.94;;;9.86;100.00
8573;BME280;4324;42.012;24.872;2022-12-18T04:18:17;99724.53;;;9.90;100.00
8573;BME280;4324;42.012;24.872;2022-12-18T04:20:44;99721.19;;;9.88;100.00
8573;BME280;4324;42.012;24.872;2022-12-18T04:23:11;99683.66;;;9.65;100.00
8573;BME280;4324;42.012;24.872;2022-12-18T04:25:38;99721.34;;;9.87;100.00
8573;BME280;4324;42.012;24.872;2022-12-18T04:28:06;99708.28;;;9.76;100.00
8573;BME280;4324;42.012;24.872;2022-12-18T04:30:32;99719.25;;;9.81;100.00
8573;BME280;4324;42.012;24.872;2022-12-18T04:33:01;99731.22;;;9.85;100.00
8573;BME280;4324;42.012;24.872;2022-12-18T04:35:28;99723.72;;;9.80;100.00
8573;BME280;4324;42.012;24.872;2022-12-18T04:37:55;99730.53;;;9.83;100.00
8573;BME280;4324;42.012;24.872;2022-12-18T04:40:22;99723.44;;;9.74;100.00
8573;BME280;4324;42.012;24.872;2022-12-18T04:42:49;99729.56;;;9.74;100.00
8573;BME280;4324;42.012;24.872;2022-12-18T04:45:16;99730.41;;;9.75;100.00
8573;BME280;4324;42.012;24.872;2022-12-18T04:47:43;99748.06;;;9.84;100.00
8573;BME280;4324;42.012;24.872;2022-12-18T04:50:12;99733.03;;;9.75;100.00
8573;BME280;4324;42.012;24.872;2022-12-18T04:52:38;99748.34;;;9.81;100.00
8573;BME280;4324;42.012;24.872;2022-12-18T04:55:06;99748.50;;;9.79;100.00
8573;BME280;4324;42.012;24.872;2022-12-18T04:57:33;99758.94;;;9.81;100.00
8573;BME280;4324;42.012;24.872;2022-12-18T05:00:00;99773.69;;;9.83;100.00
8573;BME280;4324;42.012;24.872;2022-12-18T05:02:27;99771.19;;;9.82;100.00
8573;BME280;4324;42.012;24.872;2022-12-18T05:04:54;99774.09;;;9.79;100.00
8573;BME280;4324;42.012;24.872;2022-12-18T05:07:22;99777.44;;;9.81;100.00
8573;BME280;4324;42.012;24.872;2022-12-18T05:09:49;99769.41;;;9.73;100.00
8573;BME280;4324;42.012;24.872;2022-12-18T05:12:16;99784.41;;;9.82;100.00
8573;BME280;4324;42.012;24.872;2022-12-18T05:14:43;99783.00;;;9.78;100.00
8573;BME280;4324;42.012;24.872;2022-12-18T05:17:10;99772.16;;;9.71;100.00
8573;BME280;4324;42.012;24.872;2022-12-18T05:19:36;99780.25;;;9.69;100.00
8573;BME280;4324;42.012;24.872;2022-12-18T05:22:03;99745.47;;;9.45;100.00
8573;BME280;4324;42.012;24.872;2022-12-18T05:24:36;99805.44;;;9.74;100.00
8573;BME280;4324;42.012;24.872;2022-12-18T05:27:03;99799.75;;;9.68;100.00
8573;BME280;4324;42.012;24.872;2022-12-18T05:29:30;99782.22;;;9.58;100.00
8573;BME280;4324;42.012;24.872;2022-12-18T05:31:57;99809.63;;;9.76;100.00
8573;BME280;4324;42.012;24.872;2022-12-18T05:34:24;99814.19;;;9.74;100.00
8573;BME280;4324;42.012;24.872;2022-12-18T05:36:51;99797.81;;;9.61;100.00
8573;BME280;4324;42.012;24.872;2022-12-18T05:39:18;99825.88;;;9.81;100.00
8573;BME280;4324;42.012;24.872;2022-12-18T05:41:47;99817.41;;;9.78;100.00
8573;BME280;4324;42.012;24.872;2022-12-18T05:44:13;99823.69;;;9.86;100.00
8573;BME280;4324;42.012;24.872;2022-12-18T05:46:40;99832.28;;;9.88;100.00
8573;BME280;4324;42.012;24.872;2022-12-18T05:49:07;99840.34;;;9.97;100.00
8573;BME280;4324;42.012;24.872;2022-12-18T05:51:34;99847.88;;;10.01;100.00
8573;BME280;4324;42.012;24.872;2022-12-18T05:54:01;99851.22;;;10.03;100.00
8573;BME280;4324;42.012;24.872;2022-12-18T05:56:28;99855.94;;;10.09;100.00
8573;BME280;4324;42.012;24.872;2022-12-18T05:58:56;99849.94;;;10.07;100.00
8573;BME280;4324;42.012;24.872;2022-12-18T06:01:25;99869.56;;;10.14;100.00
8573;BME280;4324;42.012;24.872;2022-12-18T06:03:52;99796.13;;;9.69;100.00
8573;BME280;4324;42.012;24.872;2022-12-18T06:06:21;99860.97;;;10.12;100.00
8573;BME280;4324;42.012;24.872;2022-12-18T06:08:49;99876.97;;;10.21;100.00
8573;BME280;4324;42.012;24.872;2022-12-18T06:11:18;99876.56;;;10.25;100.00
8573;BME280;4324;42.012;24.872;2022-12-18T06:13:45;99874.03;;;10.24;100.00
8573;BME280;4324;42.012;24.872;2022-12-18T06:16:14;99859.81;;;10.15;100.00
8573;BME280;4324;42.012;24.872;2022-12-18T06:18:41;99891.31;;;10.28;100.00
8573;BME280;4324;42.012;24.872;2022-12-18T06:21:08;99891.16;;;10.29;100.00
8573;BME280;4324;42.012;24.872;2022-12-18T06:23:35;99890.34;;;10.29;100.00
8573;BME280;4324;42.012;24.872;2022-12-18T06:26:06;99898.28;;;10.29;100.00
8573;BME280;4324;42.012;24.872;2022-12-18T06:28:33;99869.84;;;10.11;100.00
8573;BME280;4324;42.012;24.872;2022-12-18T06:31:00;99901.63;;;10.31;100.00
8573;BME280;4324;42.012;24.872;2022-12-18T06:33:30;99911.09;;;10.33;100.00
8573;BME280;4324;42.012;24.872;2022-12-18T06:36:00;99909.41;;;10.32;100.00
8573;BME280;4324;42.012;24.872;2022-12-18T06:38:27;99904.28;;;10.31;100.00
8573;BME280;4324;42.012;24.872;2022-12-18T06:40:54;99871.53;;;10.12;100.00
8573;BME280;4324;42.012;24.872;2022-12-18T06:43:21;99919.56;;;10.47;100.00
8573;BME280;4324;42.012;24.872;2022-12-18T06:45:48;99922.78;;;10.50;100.00
8573;BME280;4324;42.012;24.872;2022-12-18T06:48:18;99926.25;;;10.51;100.00
8573;BME280;4324;42.012;24.872;2022-12-18T06:50:47;99919.53;;;10.56;100.00
8573;BME280;4324;42.012;24.872;2022-12-18T06:53:14;99909.53;;;10.50;100.00
8573;BME280;4324;42.012;24.872;2022-12-18T06:55:41;99922.88;;;10.58;100.00
8573;BME280;4324;42.012;24.872;2022-12-18T06:58:08;99938.88;;;10.66;100.00
8573;BME280;4324;42.012;24.872;2022-12-18T07:00:35;99942.25;;;10.69;100.00
8573;BME280;4324;42.012;24.872;2022-12-18T07:03:02;99948.09;;;10.72;100.00
8573;BME280;4324;42.012;24.872;2022-12-18T07:05:29;99946.00;;;10.66;100.00
8573;BME280;4324;42.012;24.872;2022-12-18T07:07:57;99936.41;;;10.55;100.00
8573;BME280;4324;42.012;24.872;2022-12-18T07:10:25;99951.56;;;10.73;100.00
8573;BME280;4324;42.012;24.872;2022-12-18T07:12:52;99945.00;;;10.77;100.00
8573;BME280;4324;42.012;24.872;2022-12-18T07:15:19;99958.63;;;10.82;100.00
8573;BME280;4324;42.012;24.872;2022-12-18T07:17:46;99941.38;;;10.78;100.00
8573;BME280;4324;42.012;24.872;2022-12-18T07:20:13;99960.56;;;10.89;100.00
8573;BME280;4324;42.012;24.872;2022-12-18T07:22:40;99954.16;;;10.92;100.00
8573;BME280;4324;42.012;24.872;2022-12-18T07:25:09;99959.84;;;10.97;100.00
8573;BME280;4324;42.012;24.872;2022-12-18T07:27:35;99966.94;;;11.06;100.00
8573;BME280;4324;42.012;24.872;2022-12-18T07:30:03;99947.44;;;10.98;100.00
8573;BME280;4324;42.012;24.872;2022-12-18T07:32:30;99951.47;;;11.02;100.00
8573;BME280;4324;42.012;24.872;2022-12-18T07:34:57;99954.41;;;10.99;100.00
8573;BME280;4324;42.012;24.872;2022-12-18T07:37:24;99969.31;;;11.09;100.00
8573;BME280;4324;42.012;24.872;2022-12-18T07:39:51;99972.63;;;11.11;100.00
8573;BME280;4324;42.012;24.872;2022-12-18T07:42:19;99947.56;;;10.96;100.00
8573;BME280;4324;42.012;24.872;2022-12-18T07:44:59;99980.28;;;11.14;100.00
8573;BME280;4324;42.012;24.872;2022-12-18T07:47:26;99982.28;;;11.12;100.00
8573;BME280;4324;42.012;24.872;2022-12-18T07:49:53;99981.13;;;11.15;100.00
8573;BME280;4324;42.012;24.872;2022-12-18T07:52:20;99992.28;;;11.19;100.00
8573;BME280;4324;42.012;24.872;2022-12-18T07:54:47;99889.03;;;10.52;100.00
8573;BME280;4324;42.012;24.872;2022-12-18T07:57:15;100001.38;;;11.16;100.00
8573;BME280;4324;42.012;24.872;2022-12-18T07:59:44;100006.66;;;11.16;100.00
8573;BME280;4324;42.012;24.872;2022-12-18T08:02:10;99996.19;;;11.14;100.00
8573;BME280;4324;42.012;24.872;2022-12-18T08:04:37;100007.50;;;11.17;100.00
8573;BME280;4324;42.012;24.872;2022-12-18T08:07:04;100013.19;;;11.22;100.00
8573;BME280;4324;42.012;24.872;2022-12-18T08:09:31;100012.91;;;11.25;100.00
8573;BME280;4324;42.012;24.872;2022-12-18T08:11:58;100006.50;;;11.18;100.00
8573;BME280;4324;42.012;24.872;2022-12-18T08:14:25;100014.84;;;11.23;100.00
8573;BME280;4324;42.012;24.872;2022-12-18T08:16:53;100008.88;;;11.21;100.00
8573;BME280;4324;42.012;24.872;2022-12-18T08:19:20;100015.13;;;11.20;100.00
8573;BME280;4324;42.012;24.872;2022-12-18T08:21:47;100018.78;;;11.19;100.00
8573;BME280;4324;42.012;24.872;2022-12-18T08:24:14;100019.06;;;11.15;100.00
8573;BME280;4324;42.012;24.872;2022-12-18T08:26:41;100012.38;;;11.11;100.00
8573;BME280;4324;42.012;24.872;2022-12-18T08:29:12;100028.81;;;11.25;100.00
8573;BME280;4324;42.012;24.872;2022-12-18T08:31:39;100035.50;;;11.29;100.00
8573;BME280;4324;42.012;24.872;2022-12-18T08:34:08;100042.47;;;11.30;100.00
8573;BME280;4324;42.012;24.872;2022-12-18T08:36:35;100037.16;;;11.30;100.00
8573;BME280;4324;42.012;24.872;2022-12-18T08:39:02;99991.22;;;11.02;100.00
8573;BME280;4324;42.012;24.872;2022-12-18T08:41:29;99954.63;;;10.78;100.00
8573;BME280;4324;42.012;24.872;2022-12-18T08:43:56;99919.13;;;10.61;100.00
8573;BME280;4324;42.012;24.872;2022-12-18T08:46:42;99989.53;;;11.01;100.00
8573;BME280;4324;42.012;24.872;2022-12-18T08:49:11;100035.66;;;11.27;100.00
8573;BME280;4324;42.012;24.872;2022-12-18T08:51:39;99994.44;;;11.05;100.00
8573;BME280;4324;42.012;24.872;2022-12-18T08:54:06;99990.78;;;11.06;100.00
8573;BME280;4324;42.012;24.872;2022-12-18T08:56:34;100031.84;;;11.30;100.00
8573;BME280;4324;42.012;24.872;2022-12-18T08:59:01;100019.88;;;11.26;100.00
8573;BME280;4324;42.012;24.872;2022-12-18T09:01:28;100015.13;;;11.29;100.00
8573;BME280;4324;42.012;24.872;2022-12-18T09:03:55;100012.19;;;11.32;100.00
8573;BME280;4324;42.012;24.872;2022-12-18T09:06:23;100009.25;;;11.35;100.00
8573;BME280;4324;42.012;24.872;2022-12-18T09:08:52;100017.56;;;11.41;100.00
8573;BME280;4324;42.012;24.872;2022-12-18T09:11:20;100013.66;;;11.45;100.00
8573;BME280;4324;42.012;24.872;2022-12-18T09:13:47;99987.47;;;11.32;100.00
8573;BME280;4324;42.012;24.872;2022-12-18T09:16:15;100017.53;;;11.50;100.00
8573;BME280;4324;42.012;24.872;2022-12-18T09:18:42;100018.22;;;11.52;100.00
8573;BME280;4324;42.012;24.872;2022-12-18T09:21:10;99995.53;;;11.40;100.00
8573;BME280;4324;42.012;24.872;2022-12-18T09:23:39;100005.50;;;11.56;100.00
8573;BME280;4324;42.012;24.872;2022-12-18T09:26:06;100027.75;;;11.73;100.00
8573;BME280;4324;42.012;24.872;2022-12-18T09:28:33;100021.72;;;11.80;100.00
8573;BME280;4324;42.012;24.872;2022-12-18T09:31:04;100007.06;;;11.76;100.00
8573;BME280;4324;42.012;24.872;2022-12-18T09:33:32;100027.66;;;11.92;100.00
8573;BME280;4324;42.012;24.872;2022-12-18T09:36:01;100029.19;;;11.95;100.00
8573;BME280;4324;42.012;24.872;2022-12-18T09:38:28;100014.03;;;11.87;100.00
8573;BME280;4324;42.012;24.872;2022-12-18T09:41:00;100029.34;;;11.93;100.00
8573;BME280;4324;42.012;24.872;2022-12-18T09:43:35;100025.00;;;11.92;100.00
8573;BME280;4324;42.012;24.872;2022-12-18T09:46:08;100026.84;;;11.92;100.00
8573;BME280;4324;42.012;24.872;2022-12-18T09:48:40;100022.59;;;11.99;100.00
8573;BME280;4324;42.012;24.872;2022-12-18T09:51:13;100028.16;;;12.05;100.00
8573;BME280;4324;42.012;24.872;2022-12-18T09:53:45;100027.69;;;12.10;100.00
8573;BME280;4324;42.012;24.872;2022-12-18T09:56:17;100019.44;;;12.13;100.00
8573;BME280;4324;42.012;24.872;2022-12-18T09:58:48;100024.59;;;12.15;100.00
8573;BME280;4324;42.012;24.872;2022-12-18T10:01:21;100014.56;;;12.08;100.00
8573;BME280;4324;42.012;24.872;2022-12-18T10:03:49;100011.31;;;12.15;100.00
8573;BME280;4324;42.012;24.872;2022-12-18T10:06:21;100018.50;;;12.22;100.00
8573;BME280;4324;42.012;24.872;2022-12-18T10:08:56;100018.75;;;12.29;100.00
8573;BME280;4324;42.012;24.872;2022-12-18T10:11:40;100012.91;;;12.25;100.00
8573;BME280;4324;42.012;24.872;2022-12-18T10:14:18;100020.41;;;12.30;100.00
8573;BME280;4324;42.012;24.872;2022-12-18T10:16:56;100025.41;;;12.33;100.00
8573;BME280;4324;42.012;24.872;2022-12-18T10:19:35;100007.06;;;12.22;100.00
8573;BME280;4324;42.012;24.872;2022-12-18T10:22:14;100021.63;;;12.18;100.00
8573;BME280;4324;42.012;24.872;2022-12-18T10:24:48;100000.53;;;11.98;100.00
8573;BME280;4324;42.012;24.872;2022-12-18T10:27:24;100017.53;;;12.05;100.00
8573;BME280;4324;42.012;24.872;2022-12-18T10:29:52;100032.06;;;12.01;100.00
8573;BME280;4324;42.012;24.872;2022-12-18T10:32:22;100033.88;;;12.01;100.00
8573;BME280;4324;42.012;24.872;2022-12-18T10:34:52;100018.78;;;11.83;100.00
8573;BME280;4324;42.012;24.872;2022-12-18T10:37:21;100024.09;;;11.83;100.00
8573;BME280;4324;42.012;24.872;2022-12-18T10:40:07;100031.59;;;11.88;100.00
8573;BME280;4324;42.012;24.872;2022-12-18T10:42:36;100030.25;;;11.84;100.00
8573;BME280;4324;42.012;24.872;2022-12-18T10:45:09;100040.56;;;11.87;100.00
8573;BME280;4324;42.012;24.872;2022-12-18T10:47:42;100049.72;;;11.93;100.00
8573;BME280;4324;42.012;24.872;2022-12-18T10:50:19;100054.22;;;11.92;100.00
8573;BME280;4324;42.012;24.872;2022-12-18T10:52:55;100060.66;;;11.90;100.00
8573;BME280;4324;42.012;24.872;2022-12-18T10:55:22;100063.47;;;11.88;100.00
8573;BME280;4324;42.012;24.872;2022-12-18T10:57:52;100057.63;;;11.75;100.00
8573;BME280;4324;42.012;24.872;2022-12-18T11:00:24;100070.03;;;11.84;100.00
8573;BME280;4324;42.012;24.872;2022-12-18T11:02:53;100055.97;;;11.74;100.00
8573;BME280;4324;42.012;24.872;2022-12-18T11:05:29;100058.31;;;11.77;100.00
8573;BME280;4324;42.012;24.872;2022-12-18T11:07:57;100049.00;;;11.73;100.00
8573;BME280;4324;42.012;24.872;2022-12-18T11:10:28;100057.06;;;11.71;100.00
8573;BME280;4324;42.012;24.872;2022-12-18T11:13:11;100063.53;;;11.69;100.00
8573;BME280;4324;42.012;24.872;2022-12-18T11:15:40;100061.50;;;11.53;100.00
8573;BME280;4324;42.012;24.872;2022-12-18T11:18:16;100071.13;;;11.54;100.00
8573;BME280;4324;42.012;24.872;2022-12-18T11:20:51;100063.22;;;11.44;100.00
8573;BME280;4324;42.012;24.872;2022-12-18T11:23:19;100089.28;;;11.49;100.00
8573;BME280;4324;42.012;24.872;2022-12-18T11:25:52;100079.69;;;11.38;100.00
8573;BME280;4324;42.012;24.872;2022-12-18T11:28:39;100081.50;;;11.47;100.00
8573;BME280;4324;42.012;24.872;2022-12-18T11:31:18;100082.47;;;11.46;100.00
8573;BME280;4324;42.012;24.872;2022-12-18T11:33:49;100060.03;;;11.31;100.00
8573;BME280;4324;42.012;24.872;2022-12-18T11:36:17;100088.47;;;11.48;100.00
8573;BME280;4324;42.012;24.872;2022-12-18T11:38:46;100088.34;;;11.40;100.00
8573;BME280;4324;42.012;24.872;2022-12-18T11:41:20;100094.66;;;11.39;100.00
8573;BME280;4324;42.012;24.872;2022-12-18T11:43:52;100084.59;;;11.33;100.00
8573;BME280;4324;42.012;24.872;2022-12-18T11:46:26;100093.66;;;11.30;100.00
8573;BME280;4324;42.012;24.872;2022-12-18T11:49:01;100107.47;;;11.34;100.00
8573;BME280;4324;42.012;24.872;2022-12-18T11:51:35;100113.06;;;11.31;100.00
8573;BME280;4324;42.012;24.872;2022-12-18T11:54:12;100084.38;;;11.07;100.00
8573;BME280;4324;42.012;24.872;2022-12-18T11:56:44;100115.50;;;11.14;100.00
8573;BME280;4324;42.012;24.872;2022-12-18T11:59:23;100096.00;;;10.96;100.00
8573;BME280;4324;42.012;24.872;2022-12-18T12:01:55;100121.22;;;11.00;100.00
8573;BME280;4324;42.012;24.872;2022-12-18T12:04:40;100103.81;;;10.88;100.00
8573;BME280;4324;42.012;24.872;2022-12-18T12:07:20;100098.38;;;10.80;100.00
8573;BME280;4324;42.012;24.872;2022-12-18T12:09:57;100117.47;;;10.93;100.00
8573;BME280;4324;42.012;24.872;2022-12-18T12:12:37;100122.22;;;10.89;100.00
8573;BME280;4324;42.012;24.872;2022-12-18T12:15:22;100115.53;;;10.85;100.00
8573;BME280;4324;42.012;24.872;2022-12-18T12:17:57;100118.03;;;10.87;100.00
8573;BME280;4324;42.012;24.872;2022-12-18T12:20:32;100121.53;;;10.87;100.00
8573;BME280;4324;42.012;24.872;2022-12-18T12:23:14;100115.41;;;10.87;100.00
8573;BME280;4324;42.012;24.872;2022-12-18T12:25:48;100106.34;;;10.80;100.00
8573;BME280;4324;42.012;24.872;2022-12-18T12:28:28;100123.34;;;10.87;100.00
8573;BME280;4324;42.012;24.872;2022-12-18T12:31:06;100122.34;;;10.88;100.00
8573;BME280;4324;42.012;24.872;2022-12-18T12:33:46;100118.16;;;10.85;100.00
8573;BME280;4324;42.012;24.872;2022-12-18T12:36:26;100110.66;;;10.81;100.00
8573;BME280;4324;42.012;24.872;2022-12-18T12:39:00;100136.00;;;10.93;100.00
8573;BME280;4324;42.012;24.872;2022-12-18T12:41:33;100140.75;;;10.99;100.00
8573;BME280;4324;42.012;24.872;2022-12-18T12:44:22;100143.97;;;10.93;100.00
8573;BME280;4324;42.012;24.872;2022-12-18T12:46:52;100150.53;;;10.99;100.00
8573;BME280;4324;42.012;24.872;2022-12-18T12:49:23;100155.56;;;11.02;100.00
8573;BME280;4324;42.012;24.872;2022-12-18T12:51:57;100139.50;;;10.94;100.00
8573;BME280;4324;42.012;24.872;2022-12-18T12:54:25;100164.06;;;11.05;100.00
8573;BME280;4324;42.012;24.872;2022-12-18T12:56:59;100125.72;;;10.80;100.00
8573;BME280;4324;42.012;24.872;2022-12-18T12:59:36;100170.19;;;11.06;100.00
8573;BME280;4324;42.012;24.872;2022-12-18T13:02:15;100144.38;;;10.88;100.00
8573;BME280;4324;42.012;24.872;2022-12-18T13:04:48;100170.91;;;10.98;100.00
8573;BME280;4324;42.012;24.872;2022-12-18T13:07:19;100171.19;;;10.95;100.00
8573;BME280;4324;42.012;24.872;2022-12-18T13:10:13;100171.44;;;10.92;100.00
8573;BME280;4324;42.012;24.872;2022-12-18T13:12:52;100177.16;;;10.78;100.00
8573;BME280;4324;42.012;24.872;2022-12-18T13:15:29;100189.41;;;10.79;100.00
8573;BME280;4324;42.012;24.872;2022-12-18T13:18:20;100197.94;;;10.73;100.00